Time;durP1;ratioP1;P1;durP2;ratioP2;P2;SDS_P1;SDS_P2;PMS_P1;PMS_P2;Temp;Humidity;BMP_temperature;BMP_pressure;BME280_temperature;BME280_humidity;BME280_pressure;Samples;Min_cycle;Max_cycle;Signal;HPM_P1;HPM_P2
2022/11/22 00:02:23;;;;;;;;;4.25;2.00;;;;;7.32;71.50;99150.34;5030907;28;45615;-67
2022/11/22 00:04:50;;;;;;;;;2.50;2.50;;;;;7.26;70.91;99150.38;5029966;28;47854;-68
2022/11/22 00:07:15;;;;;;;;;2.50;1.00;;;;;7.18;71.54;99127.88;5031764;28;45791;-69
2022/11/22 00:09:41;;;;;;;;;2.00;2.00;;;;;7.27;71.67;99149.53;5025096;28;45473;-66
2022/11/22 00:12:06;;;;;;;;;4.50;2.75;;;;;7.29;71.39;99153.84;5025260;28;45888;-67
2022/11/22 00:14:32;;;;;;;;;2.25;1.75;;;;;7.31;71.17;99157.28;5031501;28;45666;-65
2022/11/22 00:16:57;;;;;;;;;3.25;1.75;;;;;7.34;71.06;99156.41;5031622;28;45520;-68
2022/11/22 00:19:23;;;;;;;;;5.75;2.75;;;;;7.34;71.20;99154.66;5030789;28;45469;-67
2022/11/22 00:21:49;;;;;;;;;3.75;2.00;;;;;7.28;71.10;99157.31;5032448;28;45704;-67
2022/11/22 00:24:14;;;;;;;;;1.75;1.75;;;;;7.28;71.99;99156.44;5032338;28;45364;-66
2022/11/22 00:26:40;;;;;;;;;2.50;1.25;;;;;7.29;70.91;99152.97;5030239;28;45585;-68
2022/11/22 00:29:06;;;;;;;;;1.00;0.00;;;;;7.15;70.93;99153.09;5026278;28;45481;-68
2022/11/22 00:31:31;;;;;;;;;5.50;3.75;;;;;6.99;71.25;99139.34;5032244;28;45447;-65
2022/11/22 00:33:57;;;;;;;;;2.00;1.50;;;;;6.92;71.83;99130.75;5035445;28;45472;-67
2022/11/22 00:36:23;;;;;;;;;5.25;3.00;;;;;6.88;71.86;99126.47;5035610;28;45398;-65
2022/11/22 00:38:49;;;;;;;;;3.00;1.75;;;;;6.98;71.91;99137.66;5031788;28;45501;-66
2022/11/22 00:41:15;;;;;;;;;6.00;2.25;;;;;6.95;71.91;99133.34;5032252;28;45417;-68
2022/11/22 00:43:40;;;;;;;;;2.00;1.00;;;;;6.81;71.98;99122.19;5032011;28;46234;-67
2022/11/22 00:46:07;;;;;;;;;2.00;2.00;;;;;6.87;71.66;99134.28;5029014;28;45389;-68
2022/11/22 00:48:33;;;;;;;;;5.50;2.00;;;;;6.84;72.32;99129.09;5020451;28;45524;-68
2022/11/22 00:50:58;;;;;;;;;2.25;1.25;;;;;6.75;72.21;99128.28;5031952;28;45627;-67
2022/11/22 00:53:27;;;;;;;;;2.50;1.00;;;;;6.69;72.00;99124.88;5037905;28;45417;-69
2022/11/22 00:55:53;;;;;;;;;7.00;3.00;;;;;6.71;72.18;99142.19;5034923;28;45406;-67
2022/11/22 00:58:18;;;;;;;;;1.50;1.25;;;;;6.70;71.75;99134.41;5036777;28;45567;-66
2022/11/22 01:00:44;;;;;;;;;2.00;2.00;;;;;6.68;72.13;99130.94;5040229;28;45252;-67
2022/11/22 01:03:11;;;;;;;;;4.50;1.25;;;;;6.75;72.19;99145.63;5037001;28;45664;-67
2022/11/22 01:05:39;;;;;;;;;5.00;2.00;;;;;6.73;72.33;99145.63;5034489;28;45433;-68
2022/11/22 01:08:05;;;;;;;;;2.25;1.50;;;;;6.78;71.88;99158.63;5031689;28;45672;-68
2022/11/22 01:10:31;;;;;;;;;3.75;2.00;;;;;6.49;71.70;99112.88;5034489;28;45728;-69
2022/11/22 01:12:57;;;;;;;;;4.75;2.00;;;;;6.61;71.58;99129.28;5034279;28;45513;-66
2022/11/22 01:15:22;;;;;;;;;2.75;2.75;;;;;6.70;71.93;99144.81;5033260;28;45520;-67
2022/11/22 01:17:49;;;;;;;;;1.00;0.00;;;;;6.67;72.23;99140.50;5036023;28;45803;-67
2022/11/22 01:20:15;;;;;;;;;2.00;0.75;;;;;6.73;72.36;99143.03;5039876;28;45719;-67
2022/11/22 01:22:40;;;;;;;;;4.50;1.75;;;;;6.74;71.93;99142.19;5038343;28;46232;-67
2022/11/22 01:25:07;;;;;;;;;1.00;1.00;;;;;6.74;71.84;99136.97;5036833;28;45729;-68
2022/11/22 01:27:45;;;;;;;;;5.75;2.00;;;;;6.82;71.69;99147.31;5032237;28;45434;-67
2022/11/22 01:30:14;;;;;;;;;2.00;2.00;;;;;6.86;71.86;99140.34;5034107;28;45700;-66
2022/11/22 01:32:40;;;;;;;;;3.00;2.00;;;;;6.83;71.63;99142.97;5034534;28;45758;-66
2022/11/22 01:35:05;;;;;;;;;4.50;2.75;;;;;6.75;71.57;99120.47;5029260;28;45430;-68
2022/11/22 01:37:31;;;;;;;;;8.00;2.00;;;;;6.80;71.73;99115.22;5038296;28;45726;-65
2022/11/22 01:39:57;;;;;;;;;4.50;3.25;;;;;6.77;72.09;99123.94;5040236;28;45444;-70
2022/11/22 01:42:22;;;;;;;;;5.25;3.00;;;;;6.58;71.95;99096.34;5039053;28;45884;-66
2022/11/22 01:44:49;;;;;;;;;2.25;1.50;;;;;6.74;72.36;99133.53;5037991;28;45441;-67
2022/11/22 01:47:23;;;;;;;;;1.75;1.75;;;;;6.73;72.45;99132.63;5033519;28;45513;-68
2022/11/22 01:49:59;;;;;;;;;2.00;2.00;;;;;6.70;72.46;99134.41;5034832;28;45426;-67
2022/11/22 01:52:28;;;;;;;;;3.00;3.00;;;;;6.67;72.76;99132.69;5034479;28;46612;-67
2022/11/22 01:55:01;;;;;;;;;5.25;2.75;;;;;6.69;72.70;99146.56;5065471;27;45804;-66
2022/11/22 01:57:35;;;;;;;;;3.50;2.50;;;;;6.62;72.50;99134.47;5032908;28;45531;-66
2022/11/22 02:00:05;;;;;;;;;4.25;2.00;;;;;6.65;72.85;99139.66;5034252;28;45471;-67
2022/11/22 02:02:33;;;;;;;;;4.75;3.75;;;;;6.67;72.42;99137.00;5031890;28;45975;-67
2022/11/22 02:05:03;;;;;;;;;7.00;3.50;;;;;6.62;72.93;99124.06;5034790;28;45690;-66
2022/11/22 02:07:47;;;;;;;;;4.50;2.00;;;;;6.58;72.93;99117.16;5036598;28;45411;-67
2022/11/22 02:10:20;;;;;;;;;5.25;2.25;;;;;6.58;73.34;99135.38;5039261;28;45477;-67
2022/11/22 02:12:47;;;;;;;;;5.25;2.50;;;;;6.61;73.64;99134.47;5038343;28;45268;-66
2022/11/22 02:15:13;;;;;;;;;3.50;1.75;;;;;6.61;73.55;99114.53;5033972;28;45417;-68
2022/11/22 02:17:38;;;;;;;;;4.25;3.50;;;;;6.64;73.79;99117.09;5035400;28;45576;-67
2022/11/22 02:20:06;;;;;;;;;2.75;2.75;;;;;6.61;73.51;99085.91;5038600;28;45703;-67
2022/11/22 02:22:42;;;;;;;;;3.50;1.75;;;;;6.70;73.61;99093.63;5038152;28;45375;-66
2022/11/22 02:25:15;;;;;;;;;3.25;1.25;;;;;6.76;73.03;99105.72;5031585;28;45441;-66
2022/11/22 02:27:41;;;;;;;;;2.50;2.00;;;;;6.66;73.37;99088.47;5037885;28;45465;-67
2022/11/22 02:30:07;;;;;;;;;3.25;2.00;;;;;6.62;73.73;99076.34;5034530;28;45976;-68
2022/11/22 02:32:33;;;;;;;;;0.75;0.75;;;;;6.64;73.39;99096.28;5033494;28;45457;-66
2022/11/22 02:34:58;;;;;;;;;2.00;1.00;;;;;6.50;73.75;99075.59;5033837;28;45452;-68
2022/11/22 02:37:31;;;;;;;;;1.25;0.75;;;;;6.68;73.24;99095.38;5033817;28;45780;-66
2022/11/22 02:40:02;;;;;;;;;5.50;0.25;;;;;6.71;73.51;99097.94;5035841;28;45602;-66
2022/11/22 02:42:30;;;;;;;;;6.50;1.25;;;;;6.72;73.28;99109.25;5037786;28;47332;-67
2022/11/22 02:44:56;;;;;;;;;4.00;1.00;;;;;6.66;74.00;99099.72;5034558;28;45523;-67
2022/11/22 02:47:22;;;;;;;;;1.25;1.00;;;;;6.36;73.87;99048.84;5033979;28;45305;-67
2022/11/22 02:49:47;;;;;;;;;2.50;0.75;;;;;6.67;73.71;99095.38;5034999;28;45468;-68
2022/11/22 02:52:17;;;;;;;;;2.75;1.25;;;;;6.68;73.93;99092.78;5033979;28;46105;-65
2022/11/22 02:54:43;;;;;;;;;2.50;1.75;;;;;6.68;73.99;99091.94;5037340;28;45652;-66
2022/11/22 02:57:09;;;;;;;;;1.75;1.00;;;;;6.67;73.76;99080.66;5034611;28;45642;-66
2022/11/22 02:59:34;;;;;;;;;2.75;1.50;;;;;6.70;74.32;99080.63;5034319;28;45478;-65
2022/11/22 03:02:00;;;;;;;;;1.50;1.00;;;;;6.58;74.02;99060.78;5048917;28;47620;-66
2022/11/22 03:04:26;;;;;;;;;0.00;0.00;;;;;6.64;74.08;99069.41;5023635;28;45580;-66
2022/11/22 03:06:57;;;;;;;;;1.00;0.75;;;;;6.57;74.76;99066.00;5033799;28;45954;-66
2022/11/22 03:09:25;;;;;;;;;2.50;1.75;;;;;6.62;74.82;99069.44;5032677;28;45708;-68
2022/11/22 03:11:52;;;;;;;;;1.00;0.00;;;;;6.59;74.82;99074.66;5032170;28;46413;-66
2022/11/22 03:14:18;;;;;;;;;4.00;2.00;;;;;6.62;74.71;99065.94;5032285;28;45494;-65
2022/11/22 03:16:45;;;;;;;;;2.00;1.50;;;;;6.62;74.62;99060.75;5031899;28;46255;-66
2022/11/22 03:19:12;;;;;;;;;1.50;1.00;;;;;6.67;74.60;99036.44;5033884;28;45374;-66
2022/11/22 03:21:39;;;;;;;;;1.75;1.75;;;;;6.64;74.79;99053.78;5034503;28;45501;-66
2022/11/22 03:24:06;;;;;;;;;1.75;1.75;;;;;6.56;74.98;99038.28;5032583;28;45512;-66
2022/11/22 03:26:32;;;;;;;;;2.75;1.50;;;;;6.64;74.70;99035.59;5032252;28;45660;-66
2022/11/22 03:28:58;;;;;;;;;2.50;0.75;;;;;6.63;74.96;99031.28;5031642;28;45607;-65
2022/11/22 03:31:23;;;;;;;;;2.75;0.75;;;;;6.72;74.88;99057.22;5031200;28;45463;-64
2022/11/22 03:33:49;;;;;;;;;2.75;1.50;;;;;6.67;74.69;99033.84;5032860;28;45489;-66
2022/11/22 03:36:15;;;;;;;;;6.00;2.00;;;;;6.74;74.65;99055.47;5036434;28;45392;-65
2022/11/22 03:38:40;;;;;;;;;5.25;2.00;;;;;6.70;74.63;99052.00;5037370;28;45442;-66
2022/11/22 03:41:06;;;;;;;;;1.00;1.00;;;;;6.53;75.46;99028.75;5034667;28;46015;-66
2022/11/22 03:43:32;;;;;;;;;2.00;2.00;;;;;6.69;75.37;99052.91;5032905;28;45304;-66
2022/11/22 03:45:57;;;;;;;;;2.00;1.00;;;;;6.76;75.02;99059.78;5033095;28;45535;-66
2022/11/22 03:48:23;;;;;;;;;1.25;1.25;;;;;6.80;75.15;99065.78;5034799;28;45575;-66
2022/11/22 03:50:48;;;;;;;;;2.00;1.50;;;;;6.67;75.25;99030.34;5032290;28;46000;-66
2022/11/22 03:53:14;;;;;;;;;1.00;1.00;;;;;6.85;75.02;99060.53;5032349;28;45583;-67
2022/11/22 03:55:40;;;;;;;;;2.00;2.00;;;;;6.87;75.09;99054.44;5031677;28;45443;-66
2022/11/22 03:58:05;;;;;;;;;1.50;1.00;;;;;6.82;74.77;99035.41;5030593;28;45708;-67
2022/11/22 04:00:32;;;;;;;;;5.00;2.00;;;;;6.88;74.47;99044.91;5033933;28;45625;-66
2022/11/22 04:02:57;;;;;;;;;0.75;0.00;;;;;6.86;75.02;99038.84;5031400;28;45362;-65
2022/11/22 04:05:23;;;;;;;;;1.75;1.00;;;;;6.95;75.07;99056.97;5031282;28;45753;-65
2022/11/22 04:07:54;;;;;;;;;4.50;1.00;;;;;7.00;74.98;99057.81;5033351;28;45867;-67
2022/11/22 04:10:19;;;;;;;;;4.75;2.00;;;;;7.01;75.36;99054.31;5033206;28;45981;-66
2022/11/22 04:12:45;;;;;;;;;7.25;0.50;;;;;7.00;75.76;99058.66;5032067;28;45466;-66
2022/11/22 04:15:10;;;;;;;;;4.00;1.25;;;;;6.98;75.59;99043.94;5034806;28;45422;-67
2022/11/22 04:17:44;;;;;;;;;0.50;0.00;;;;;6.96;75.69;99051.75;5032665;28;45455;-66
2022/11/22 04:23:20;;;;;;;;;2.25;1.75;;;;;7.01;75.51;99055.16;5031852;28;45501;-66
2022/11/22 04:25:50;;;;;;;;;3.00;2.00;;;;;6.93;76.15;99043.13;5031161;28;45706;-66
2022/11/22 04:28:18;;;;;;;;;0.50;0.50;;;;;6.94;75.90;99031.81;5031892;28;45543;-67
2022/11/22 04:33:29;;;;;;;;;6.00;1.50;;;;;7.03;75.62;99036.94;5035784;28;45447;-67
2022/11/22 04:35:54;;;;;;;;;3.50;2.75;;;;;6.97;75.82;99006.63;5035433;28;45599;-67
2022/11/22 04:38:21;;;;;;;;;3.00;1.25;;;;;6.97;76.08;99019.63;5035754;28;45882;-67
2022/11/22 04:40:46;;;;;;;;;2.25;2.00;;;;;6.89;76.10;99010.19;5030690;28;47907;-66
2022/11/22 04:46:05;;;;;;;;;6.50;2.25;;;;;7.07;76.09;99009.13;5033126;28;45505;-67
2022/11/22 04:48:31;;;;;;;;;2.00;1.00;;;;;7.07;75.70;99020.41;5032104;28;45484;-66
2022/11/22 04:53:43;;;;;;;;;3.00;1.00;;;;;7.09;75.95;99016.03;5031792;28;45469;-67
2022/11/22 04:56:09;;;;;;;;;1.75;1.00;;;;;7.14;75.46;99021.19;5031427;28;45526;-67
2022/11/22 04:58:34;;;;;;;;;3.25;1.00;;;;;7.12;75.66;99023.81;5031643;28;45319;-67
2022/11/22 05:01:00;;;;;;;;;1.75;0.25;;;;;7.19;75.76;99024.63;5031397;28;46265;-66
2022/11/22 05:03:25;;;;;;;;;2.00;1.50;;;;;7.19;75.81;99016.81;5030325;28;45583;-68
2022/11/22 05:05:51;;;;;;;;;2.00;2.00;;;;;7.10;75.72;99007.34;5032136;28;45427;-67
2022/11/22 05:08:16;;;;;;;;;2.00;1.25;;;;;7.25;75.38;99023.69;5033810;28;45644;-68
2022/11/22 05:10:58;;;;;;;;;6.25;2.00;;;;;7.17;75.52;99009.00;5029238;28;45443;-68
2022/11/22 05:13:27;;;;;;;;;2.75;1.75;;;;;7.18;75.00;99007.25;5024094;28;45508;-67
2022/11/22 05:15:53;;;;;;;;;2.75;1.00;;;;;7.25;75.28;99010.66;5023604;28;45661;-67
2022/11/22 05:18:20;;;;;;;;;3.50;2.00;;;;;7.15;75.52;99002.09;5031885;28;45660;-67
2022/11/22 05:20:45;;;;;;;;;1.00;1.00;;;;;7.33;75.16;99017.50;5031310;28;45509;-66
2022/11/22 05:25:56;;;;;;;;;2.50;1.00;;;;;7.48;74.83;99003.41;5031425;28;45905;-66
2022/11/22 05:28:22;;;;;;;;;0.75;0.25;;;;;7.53;74.49;99008.56;5034627;28;45547;-66
2022/11/22 05:30:47;;;;;;;;;0.00;0.00;;;;;7.48;74.77;98993.00;5031278;28;45492;-65
2022/11/22 05:33:13;;;;;;;;;1.00;0.50;;;;;7.46;74.56;98989.53;5032155;28;45455;-67
2022/11/22 05:35:38;;;;;;;;;1.00;1.00;;;;;7.62;74.84;99019.72;5032753;28;45664;-66
2022/11/22 05:38:04;;;;;;;;;2.25;0.00;;;;;7.64;74.79;99011.91;5032243;28;45667;-66
2022/11/22 05:40:30;;;;;;;;;2.00;0.00;;;;;7.50;75.44;98998.16;5032571;28;45820;-66
2022/11/22 05:42:56;;;;;;;;;0.75;0.50;;;;;7.55;75.84;99004.19;5037548;28;45358;-66
2022/11/22 05:45:22;;;;;;;;;0.25;0.25;;;;;7.64;76.52;99014.50;5032867;28;45427;-67
2022/11/22 05:47:48;;;;;;;;;0.00;0.00;;;;;7.59;76.01;99005.84;5050070;28;45577;-66
2022/11/22 05:50:13;;;;;;;;;2.00;1.00;;;;;7.69;75.97;99017.91;5034236;28;46257;-67
2022/11/22 05:52:38;;;;;;;;;0.00;0.00;;;;;7.71;76.04;99028.28;5036085;28;45433;-67
2022/11/22 05:55:04;;;;;;;;;1.00;0.75;;;;;7.68;76.11;99026.59;5033440;28;45600;-67
2022/11/22 05:57:31;;;;;;;;;0.25;0.25;;;;;7.61;76.85;99017.97;5034780;28;45580;-66
2022/11/22 05:59:57;;;;;;;;;1.25;0.75;;;;;7.65;76.54;99039.66;5034488;28;46152;-66
2022/11/22 06:02:23;;;;;;;;;0.00;0.00;;;;;7.59;76.80;99024.97;5037764;28;45449;-67
2022/11/22 06:04:49;;;;;;;;;0.50;0.50;;;;;7.51;76.72;99013.78;5038490;28;45540;-67
2022/11/22 06:07:14;;;;;;;;;1.00;0.50;;;;;7.63;77.04;99038.81;5038393;28;45388;-66
2022/11/22 06:09:40;;;;;;;;;2.00;0.00;;;;;7.62;77.13;99024.09;5038141;28;46258;-66
2022/11/22 06:12:05;;;;;;;;;1.00;1.00;;;;;7.62;77.35;99024.09;5037806;28;45360;-65
2022/11/22 06:14:31;;;;;;;;;0.25;0.25;;;;;7.58;77.59;99015.44;5038184;28;45721;-66
2022/11/22 06:16:56;;;;;;;;;3.25;1.00;;;;;7.59;77.81;99022.38;5036247;28;45684;-66
2022/11/22 06:19:22;;;;;;;;;0.75;0.75;;;;;7.63;77.74;99018.81;5033557;28;46515;-66
2022/11/22 06:21:47;;;;;;;;;0.00;0.00;;;;;7.59;77.35;99000.66;5035764;28;45478;-66
2022/11/22 06:24:13;;;;;;;;;3.25;1.00;;;;;7.69;77.37;99012.69;5034812;28;45882;-65
2022/11/22 06:26:38;;;;;;;;;0.75;0.25;;;;;7.69;76.89;99017.91;5034309;28;45350;-66
2022/11/22 06:29:04;;;;;;;;;0.50;0.00;;;;;7.64;77.60;99006.69;5034142;28;46017;-65
2022/11/22 06:31:30;;;;;;;;;0.25;0.25;;;;;7.71;77.43;99021.34;5033900;28;45465;-65
2022/11/22 06:34:01;;;;;;;;;3.00;1.00;;;;;7.70;77.45;99029.19;5034033;28;45812;-66
2022/11/22 06:36:29;;;;;;;;;2.00;0.75;;;;;7.74;77.23;99018.69;5033039;28;45576;-66
2022/11/22 06:38:55;;;;;;;;;1.50;1.00;;;;;7.77;77.41;99036.03;5033488;28;45620;-66
2022/11/22 06:41:25;;;;;;;;;3.25;1.00;;;;;7.67;77.34;99022.25;5032898;28;45501;-66
2022/11/22 06:43:52;;;;;;;;;1.00;0.50;;;;;7.66;77.80;99028.34;5033784;28;45474;-65
2022/11/22 06:46:20;;;;;;;;;3.50;1.00;;;;;7.70;77.75;99034.38;5033077;28;45887;-67
2022/11/22 06:48:47;;;;;;;;;0.00;0.00;;;;;7.72;77.59;99035.25;5033344;28;46086;-65
2022/11/22 06:51:24;;;;;;;;;3.25;1.25;;;;;7.76;77.17;99031.69;5031735;28;45518;-66
2022/11/22 06:53:51;;;;;;;;;3.00;1.00;;;;;7.79;77.26;99032.50;5037176;28;45506;-66
2022/11/22 06:56:23;;;;;;;;;1.00;1.00;;;;;7.81;77.25;99033.38;5037066;28;45428;-65
2022/11/22 06:58:50;;;;;;;;;0.50;0.50;;;;;7.79;77.60;99035.13;5035330;28;45486;-65
2022/11/22 07:01:27;;;;;;;;;0.50;0.00;;;;;7.73;77.19;99029.97;5033235;28;45737;-66
2022/11/22 07:03:56;;;;;;;;;3.50;1.25;;;;;7.69;77.62;99038.75;5023581;28;45785;-64
2022/11/22 07:06:23;;;;;;;;;1.00;1.00;;;;;7.77;77.53;99044.69;5032760;28;45545;-68
2022/11/22 07:08:49;;;;;;;;;1.00;1.00;;;;;7.78;77.55;99041.22;5033571;28;45497;-68
2022/11/22 07:11:20;;;;;;;;;3.25;0.50;;;;;7.80;77.18;99038.59;5032571;28;45476;-66
2022/11/22 07:13:47;;;;;;;;;1.25;1.00;;;;;7.60;77.02;99010.22;5033198;28;45478;-66
2022/11/22 07:16:15;;;;;;;;;1.00;1.00;;;;;7.82;76.74;99055.91;5032743;28;45473;-66
2022/11/22 07:18:41;;;;;;;;;1.25;0.75;;;;;7.80;76.85;99055.06;5032594;28;45509;-64
2022/11/22 07:21:20;;;;;;;;;2.00;0.75;;;;;7.85;76.83;99053.28;5032412;28;45893;-66
2022/11/22 07:23:48;;;;;;;;;2.75;0.00;;;;;7.89;77.01;99055.84;5034468;28;45829;-66
2022/11/22 07:26:15;;;;;;;;;0.00;0.00;;;;;7.89;76.94;99054.09;5037267;28;45494;-67
2022/11/22 07:28:41;;;;;;;;;2.25;1.00;;;;;7.82;76.60;99035.06;5033707;28;45349;-69
2022/11/22 07:31:09;;;;;;;;;0.00;0.00;;;;;7.99;76.31;99063.50;5032200;28;45453;-64
2022/11/22 07:33:35;;;;;;;;;4.50;1.25;;;;;8.00;76.76;99073.06;5033301;28;45422;-66
2022/11/22 07:36:09;;;;;;;;;1.00;1.00;;;;;8.04;75.96;99073.88;5036684;28;45491;-67
2022/11/22 07:38:35;;;;;;;;;1.50;0.50;;;;;8.07;75.78;99081.66;5035845;28;46791;-65
2022/11/22 07:41:01;;;;;;;;;3.00;2.00;;;;;8.06;75.77;99069.50;5036608;28;45461;-66
2022/11/22 07:43:27;;;;;;;;;0.00;0.00;;;;;8.02;76.05;99078.25;5036468;28;46047;-66
2022/11/22 07:45:56;;;;;;;;;0.75;0.25;;;;;7.93;76.09;99061.00;5036915;28;45677;-66
2022/11/22 07:48:22;;;;;;;;;0.00;0.00;;;;;8.08;75.72;99086.00;5036182;28;46544;-65
2022/11/22 07:50:47;;;;;;;;;0.00;0.00;;;;;8.06;75.54;99078.19;5036758;28;45387;-65
2022/11/22 07:53:13;;;;;;;;;0.00;0.00;;;;;8.08;75.16;99068.59;5033768;28;45643;-66
2022/11/22 07:55:38;;;;;;;;;1.00;0.00;;;;;8.07;75.43;99079.06;5032253;28;45393;-64
2022/11/22 07:58:04;;;;;;;;;2.00;1.00;;;;;8.05;75.07;99078.22;5031747;28;45473;-67
2022/11/22 08:00:30;;;;;;;;;0.50;0.00;;;;;8.07;75.26;99081.66;5031652;28;45445;-65
2022/11/22 08:02:57;;;;;;;;;0.25;0.25;;;;;8.13;75.71;99097.22;5036894;28;45697;-66
2022/11/22 08:05:22;;;;;;;;;1.00;0.00;;;;;8.13;75.51;99083.31;5034498;28;45546;-67
2022/11/22 08:07:49;;;;;;;;;2.75;0.00;;;;;8.07;76.02;99068.63;5032430;28;45838;-66
2022/11/22 08:10:18;;;;;;;;;0.00;0.00;;;;;8.13;76.11;99078.97;5032048;28;45793;-67
2022/11/22 08:12:43;;;;;;;;;0.75;0.00;;;;;8.11;76.36;99079.88;5031990;28;45454;-66
2022/11/22 08:15:11;;;;;;;;;0.00;0.00;;;;;8.07;76.59;99081.66;5035153;28;45364;-68
2022/11/22 08:17:37;;;;;;;;;1.00;1.00;;;;;8.17;76.56;99096.28;5030912;28;45602;-66
2022/11/22 08:20:04;;;;;;;;;1.50;1.00;;;;;8.16;76.09;99083.25;5017350;28;45726;-66
2022/11/22 08:22:29;;;;;;;;;1.75;0.00;;;;;8.22;76.65;99091.00;5030682;28;45437;-65
2022/11/22 08:24:55;;;;;;;;;1.25;0.00;;;;;8.24;76.39;99086.63;5026743;28;45549;-65
2022/11/22 08:27:20;;;;;;;;;4.00;1.00;;;;;8.27;76.59;99099.63;5028725;28;46178;-64
2022/11/22 08:29:46;;;;;;;;;0.00;0.00;;;;;8.24;77.18;99108.34;5032213;28;45765;-64
2022/11/22 08:32:12;;;;;;;;;2.00;0.75;;;;;8.28;76.82;99101.34;5032426;28;45481;-67
2022/11/22 08:34:37;;;;;;;;;1.25;0.00;;;;;8.16;76.93;99084.16;5031869;28;45884;-67
2022/11/22 08:37:03;;;;;;;;;1.25;0.00;;;;;8.24;76.69;99089.25;5032094;28;45535;-67
2022/11/22 08:39:29;;;;;;;;;0.75;0.75;;;;;8.36;76.64;99111.69;5029788;28;45476;-66
2022/11/22 08:41:54;;;;;;;;;2.25;2.00;;;;;8.31;76.59;99106.53;5031318;28;45428;-68
2022/11/22 08:44:20;;;;;;;;;1.00;1.00;;;;;8.32;76.86;99110.00;5033240;28;45409;-69
2022/11/22 08:46:45;;;;;;;;;1.75;1.75;;;;;8.11;76.36;99088.53;5034820;28;45845;-66
2022/11/22 08:49:18;;;;;;;;;1.00;1.00;;;;;8.34;77.29;99103.00;5022516;28;45762;-67
2022/11/22 08:51:47;;;;;;;;;2.00;0.50;;;;;8.24;76.79;99095.31;5033911;28;45445;-66
2022/11/22 08:54:17;;;;;;;;;2.00;2.00;;;;;8.43;76.85;99118.56;5036523;28;45338;-67
2022/11/22 08:56:43;;;;;;;;;2.50;1.50;;;;;8.37;76.95;99090.75;5032249;28;45587;-66
2022/11/22 08:59:12;;;;;;;;;5.50;2.50;;;;;8.57;76.27;99106.16;5032524;28;45473;-64
2022/11/22 09:01:38;;;;;;;;;4.25;1.50;;;;;8.63;76.07;99107.78;5031443;28;45433;-66
2022/11/22 09:04:04;;;;;;;;;3.50;1.00;;;;;8.86;75.69;99105.66;5030780;28;45845;-65
2022/11/22 09:06:30;;;;;;;;;4.25;1.50;;;;;8.99;75.39;99132.41;5033516;28;45722;-67
2022/11/22 09:08:56;;;;;;;;;2.50;1.00;;;;;8.99;74.99;99126.34;5035443;28;45449;-66
2022/11/22 09:11:21;;;;;;;;;4.75;2.75;;;;;9.07;74.96;99120.09;5034892;28;45488;-65
2022/11/22 09:13:47;;;;;;;;;1.75;1.00;;;;;8.93;74.78;99090.75;5034870;28;45491;-66
2022/11/22 09:16:16;;;;;;;;;3.00;2.00;;;;;9.11;74.79;99118.28;5034404;28;47622;-67
2022/11/22 09:18:42;;;;;;;;;5.25;2.00;;;;;9.38;73.96;99131.75;5037958;28;45618;-66
2022/11/22 09:21:14;;;;;;;;;0.50;0.50;;;;;9.73;72.04;99100.56;5038237;28;45450;-69
2022/11/22 09:23:40;;;;;;;;;3.75;1.00;;;;;10.12;71.15;99105.81;5036053;28;45433;-68
2022/11/22 09:26:08;;;;;;;;;2.50;1.75;;;;;10.22;70.63;99130.00;5039871;28;45935;-65
2022/11/22 09:28:34;;;;;;;;;2.25;1.00;;;;;10.15;69.94;99120.56;5039710;28;45485;-66
2022/11/22 09:31:06;;;;;;;;;3.00;1.00;;;;;10.11;70.31;99145.97;5039798;28;45540;-66
2022/11/22 09:33:33;;;;;;;;;5.75;1.25;;;;;10.61;69.76;99128.28;5036698;28;45879;-67
2022/11/22 09:36:11;;;;;;;;;2.00;0.50;;;;;12.64;64.64;99130.50;5034782;28;45529;-66
2022/11/22 09:38:37;;;;;;;;;0.00;0.00;;;;;14.32;59.06;99088.59;5039370;28;45450;-65
2022/11/22 09:41:15;;;;;;;;;3.33;1.00;;;;;16.27;53.23;99109.22;5036161;28;45467;-66
2022/11/22 09:44:05;;;;;;;;;4.00;1.00;;;;;18.50;49.26;99115.44;5035666;28;45292;-64
2022/11/22 09:46:48;;;;;;;;;3.00;0.00;;;;;20.87;43.31;99113.38;5032619;28;46014;-66
2022/11/22 09:49:40;;;;;;;;;1.33;0.00;;;;;23.01;38.84;99103.69;5034620;28;45653;-66
2022/11/22 09:52:16;;;;;;;;;2.00;1.00;;;;;23.99;34.98;99105.94;5026639;28;45692;-67
2022/11/22 09:54:50;;;;;;;;;0.00;0.00;;;;;24.49;35.46;99091.22;5034614;28;46143;-64
2022/11/22 09:57:43;;;;;;;;;1.33;1.00;;;;;25.02;33.80;99103.78;5039964;28;46063;-65
2022/11/22 10:00:24;;;;;;;;;2.33;1.00;;;;;24.80;34.86;99098.53;5028192;28;45522;-66
2022/11/22 10:03:07;;;;;;;;;3.00;0.33;;;;;23.60;34.37;99092.06;5035240;28;45759;-66
2022/11/22 10:05:51;;;;;;;;;1.33;0.67;;;;;25.10;33.37;99109.34;5035533;28;45609;-67
2022/11/22 10:08:33;;;;;;;;;1.00;1.00;;;;;26.29;31.37;99097.34;5029582;28;46271;-65
2022/11/22 10:11:02;;;;;;;;;1.67;1.67;;;;;27.24;29.87;99098.59;5024347;28;45463;-64
2022/11/22 10:13:50;;;;;;;;;1.00;0.50;;;;;27.44;29.58;99107.47;5034105;28;45301;-66
2022/11/22 10:16:28;;;;;;;;;1.00;0.50;;;;;27.23;29.67;99099.59;5039387;28;45533;-68
2022/11/22 10:19:33;;;;;;;;;2.75;1.00;;;;;28.07;28.90;99104.19;5035386;28;46315;-66
2022/11/22 10:21:59;;;;;;;;;2.00;1.50;;;;;28.54;28.06;99085.25;5033619;28;45697;-66
2022/11/22 10:24:25;;;;;;;;;2.50;1.25;;;;;28.52;27.03;99111.47;5034010;28;45481;-68
2022/11/22 10:26:53;;;;;;;;;2.00;1.25;;;;;28.06;27.78;99103.34;5034505;28;45655;-69
2022/11/22 10:29:41;;;;;;;;;4.50;1.25;;;;;27.90;27.89;99109.38;5035390;28;45411;-71
2022/11/22 10:32:15;;;;;;;;;3.00;2.00;;;;;28.17;27.40;99109.53;5034861;28;45438;-67
2022/11/22 10:34:54;;;;;;;;;4.00;1.00;;;;;27.79;27.02;99120.28;5033883;28;45515;-67
2022/11/22 10:37:42;;;;;;;;;0.50;0.50;;;;;28.74;27.04;99102.13;5034055;28;45721;-67
2022/11/22 10:40:23;;;;;;;;;0.50;0.50;;;;;29.08;26.24;99107.69;5020345;28;46112;-66
2022/11/22 10:43:01;;;;;;;;;0.75;0.75;;;;;27.16;27.51;99115.41;5028707;28;45937;-66
2022/11/22 10:45:36;;;;;;;;;1.75;1.25;;;;;27.58;27.91;99120.47;5036657;28;45400;-67
2022/11/22 10:48:19;;;;;;;;;3.50;1.00;;;;;26.79;28.05;99107.19;5033976;28;45452;-67
2022/11/22 10:50:55;;;;;;;;;3.50;1.00;;;;;25.17;30.05;99107.88;5032217;28;46297;-67
2022/11/22 10:53:27;;;;;;;;;2.00;1.00;;;;;25.26;30.11;99121.50;5034089;28;45489;-68
2022/11/22 10:56:26;;;;;;;;;1.00;1.00;;;;;26.51;28.29;99101.63;5035251;28;45486;-68
2022/11/22 10:58:57;;;;;;;;;1.25;1.00;;;;;25.39;29.86;99124.84;5024442;28;45934;-67
2022/11/22 11:01:46;;;;;;;;;2.00;1.00;;;;;27.15;27.32;99121.78;5033287;28;45861;-69
2022/11/22 11:04:14;;;;;;;;;58.00;45.75;;;;;28.46;26.91;99129.09;5033371;28;45508;-66
2022/11/22 11:06:45;;;;;;;;;21.67;21.67;;;;;29.19;25.33;99087.75;5033521;28;45437;-69
2022/11/22 11:09:33;;;;;;;;;9.67;5.00;;;;;29.59;24.59;99107.94;5033728;28;45619;-67
2022/11/22 11:12:04;;;;;;;;;2.25;2.25;;;;;29.44;24.47;99104.09;5031210;28;47063;-67
2022/11/22 11:14:42;;;;;;;;;2.00;2.00;;;;;29.98;24.25;99124.53;5037345;28;45573;-67
2022/11/22 11:17:16;;;;;;;;;2.00;2.00;;;;;29.97;24.06;99105.78;5034983;28;45854;-68
2022/11/22 11:19:45;;;;;;;;;3.50;1.00;;;;;28.53;25.78;99122.09;5034534;28;45566;-67
2022/11/22 11:22:32;;;;;;;;;1.00;1.00;;;;;25.75;28.04;99123.50;5035385;28;45671;-67
2022/11/22 11:25:43;;;;;;;;;1.00;1.00;;;;;23.87;30.69;99130.03;5033063;28;45536;-68
2022/11/22 11:28:12;;;;;;;;;3.00;1.75;;;;;25.81;28.33;99119.41;5027573;28;45643;-68
2022/11/22 11:30:45;;;;;;;;;2.00;1.50;;;;;27.58;26.07;99122.31;5037938;28;45351;-68
2022/11/22 11:33:18;;;;;;;;;1.00;1.00;;;;;27.15;26.39;99139.75;5032980;28;46169;-70
2022/11/22 11:35:47;;;;;;;;;0.75;0.75;;;;;28.25;25.53;99132.00;5032051;28;45327;-68
2022/11/22 11:38:53;;;;;;;;;2.50;1.00;;;;;27.06;26.44;99120.78;5035407;28;45698;-68
2022/11/22 11:41:31;;;;;;;;;1.25;0.00;;;;;28.09;25.54;99129.94;4995721;28;45547;-69
2022/11/22 11:43:59;;;;;;;;;1.00;0.00;;;;;28.54;24.83;99120.25;5027631;28;45500;-70
2022/11/22 11:46:27;;;;;;;;;2.00;1.00;;;;;25.44;27.30;99111.00;5036635;28;45330;-68
2022/11/22 11:49:20;;;;;;;;;2.75;2.00;;;;;24.02;30.90;99125.28;5037568;28;45457;-70
2022/11/22 11:51:48;;;;;;;;;3.33;2.00;;;;;23.01;34.09;99128.56;5036527;28;45517;-70
2022/11/22 11:54:15;;;;;;;;;16.33;13.67;;;;;21.38;36.31;99124.13;5033209;28;46154;-74
2022/11/22 11:56:56;;;;;;;;;11.00;8.00;;;;;20.17;38.25;99136.50;5032513;28;45693;-73
2022/11/22 11:59:39;;;;;;;;;24.67;18.33;;;;;19.16;41.23;99119.63;5021578;28;45554;-69
2022/11/22 12:03:14;;;;;;;;;8.33;5.33;;;;;18.51;40.27;99146.28;5066196;28;45409;-69
2022/11/22 12:05:39;;;;;;;;;2.33;2.33;;;;;17.91;41.00;99112.50;5065509;28;45695;-69